createdAt,value
2022-09-07T00:02:40.107Z,3.70
2022-09-07T00:05:45.885Z,3.70
2022-09-07T00:08:49.302Z,3.70
2022-09-07T00:11:52.772Z,3.60
2022-09-07T00:14:56.402Z,3.60
2022-09-07T00:17:59.842Z,3.60
2022-09-07T00:21:07.839Z,3.60
2022-09-07T00:24:11.309Z,3.60
2022-09-07T00:27:14.678Z,3.60
2022-09-07T00:30:18.233Z,3.60
2022-09-07T00:33:21.592Z,3.50
2022-09-07T00:36:26.489Z,3.50
2022-09-07T00:39:30.057Z,3.60
2022-09-07T00:42:33.605Z,3.50
2022-09-07T00:45:36.985Z,3.50
2022-09-07T00:48:46.093Z,3.60
2022-09-07T00:58:41.811Z,3.50
2022-09-07T01:11:51.146Z,3.40
2022-09-07T01:14:55.822Z,3.30
2022-09-07T01:18:06.536Z,3.30
2022-09-07T01:21:23.166Z,3.20
2022-09-07T01:24:54.237Z,3.20
2022-09-07T01:28:09.533Z,3.20
2022-09-07T01:31:21.844Z,3.10
2022-09-07T01:34:27.239Z,3.20
2022-09-07T01:37:39.580Z,3.10
2022-09-07T01:40:52.575Z,3.10
2022-09-07T01:44:03.208Z,3.00
2022-09-07T01:47:10.460Z,3.00
2022-09-07T01:50:19.548Z,3.00
2022-09-07T01:53:28.248Z,3.00
2022-09-07T01:56:36.160Z,2.90
2022-09-07T01:59:43.764Z,2.90
2022-09-07T02:02:52.593Z,2.90
2022-09-07T02:06:01.225Z,2.90
2022-09-07T02:09:08.587Z,2.80
2022-09-07T02:12:17.793Z,2.80
2022-09-07T02:15:26.195Z,2.80
2022-09-07T02:18:34.551Z,2.80
2022-09-07T02:21:41.264Z,2.70
2022-09-07T02:24:47.732Z,2.70
2022-09-07T02:27:56.146Z,2.70
2022-09-07T02:31:01.661Z,2.70
2022-09-07T02:34:05.311Z,2.70
2022-09-07T02:37:11.119Z,2.70
2022-09-07T02:40:15.019Z,2.80
2022-09-07T02:43:18.408Z,2.80
2022-09-07T02:46:36.126Z,2.70
2022-09-07T02:50:01.155Z,2.60
2022-09-07T02:53:16.545Z,2.50
2022-09-07T02:56:31.203Z,2.40
2022-09-07T02:59:49.438Z,2.40
2022-09-07T03:03:01.773Z,2.50
2022-09-07T03:06:10.964Z,2.40
2022-09-07T03:09:18.297Z,2.40
2022-09-07T03:12:22.062Z,2.40
2022-09-07T03:15:27.842Z,2.30
2022-09-07T03:18:32.807Z,2.30
2022-09-07T03:21:36.783Z,2.30
2022-09-07T03:24:40.405Z,2.30
2022-09-07T03:27:44.044Z,2.30
2022-09-07T03:31:06.375Z,2.20
2022-09-07T03:34:11.599Z,2.30
2022-09-07T03:37:15.210Z,2.30
2022-09-07T03:40:18.872Z,2.30
2022-09-07T03:43:22.237Z,2.30
2022-09-07T03:46:25.676Z,2.20
2022-09-07T03:49:30.899Z,2.20
2022-09-07T03:52:35.758Z,2.10
2022-09-07T03:55:39.880Z,2.10
2022-09-07T03:58:48.920Z,2.10
2022-09-07T04:01:52.613Z,2.00
2022-09-07T04:04:57.497Z,2.10
2022-09-07T04:08:00.822Z,2.10
2022-09-07T04:11:05.485Z,2.10
2022-09-07T04:14:09.307Z,2.20
2022-09-07T04:17:12.691Z,2.20
2022-09-07T04:20:17.638Z,2.20
2022-09-07T04:23:21.289Z,2.20
2022-09-07T04:26:27.219Z,2.30
2022-09-07T04:29:30.584Z,2.30
2022-09-07T04:32:34.072Z,2.40
2022-09-07T04:35:39.506Z,2.40
2022-09-07T04:38:45.724Z,2.60
2022-09-07T04:41:49.354Z,2.70
2022-09-07T04:44:52.688Z,2.80
2022-09-07T04:47:56.511Z,2.90
2022-09-07T04:51:07.172Z,3.10
2022-09-07T04:54:11.409Z,3.10
2022-09-07T04:57:14.958Z,3.20
2022-09-07T05:00:18.768Z,3.30
2022-09-07T05:03:22.592Z,3.50
2022-09-07T05:06:27.400Z,3.60
2022-09-07T05:09:30.878Z,3.80
2022-09-07T05:12:34.518Z,4.00
2022-09-07T05:15:38.825Z,4.20
2022-09-07T05:18:42.414Z,4.30
2022-09-07T05:21:47.385Z,4.50
2022-09-07T05:24:51.048Z,4.70
2022-09-07T05:27:54.570Z,5.00
2022-09-07T05:31:20.727Z,5.10
2022-09-07T05:34:32.206Z,5.40
2022-09-07T05:37:37.489Z,5.70
2022-09-07T05:40:41.121Z,5.90
2022-09-07T05:47:08.875Z,6.40
2022-09-07T05:50:12.390Z,6.60
2022-09-07T05:53:17.272Z,7.00
2022-09-07T05:56:20.668Z,7.30
2022-09-07T05:59:24.034Z,7.50
2022-09-07T06:02:27.490Z,7.80
2022-09-07T06:05:31.029Z,8.00
2022-09-07T06:08:37.948Z,8.20
2022-09-07T06:11:41.330Z,8.50
2022-09-07T06:14:44.718Z,8.70
2022-09-07T06:17:50.079Z,8.90
2022-09-07T06:20:53.435Z,9.20
2022-09-07T06:23:59.868Z,9.50
2022-09-07T06:27:03.310Z,9.70
2022-09-07T06:30:07.963Z,10.00
2022-09-07T06:33:11.304Z,10.20
2022-09-07T06:36:16.016Z,10.40
2022-09-07T06:39:20.837Z,10.70
2022-09-07T06:42:24.248Z,10.90
2022-09-07T06:45:29.810Z,11.40
2022-09-07T06:48:33.763Z,11.50
2022-09-07T06:51:37.198Z,11.70
2022-09-07T06:58:00.585Z,12.00
2022-09-07T07:01:07.837Z,12.20
2022-09-07T07:04:11.310Z,12.40
2022-09-07T07:07:16.260Z,12.60
2022-09-07T07:10:24.486Z,12.70
2022-09-07T07:13:28.253Z,12.80
2022-09-07T07:16:31.747Z,13.00
2022-09-07T07:19:35.167Z,13.10
2022-09-07T07:22:46.947Z,13.20
2022-09-07T07:25:51.944Z,13.30
2022-09-07T07:32:02.067Z,13.60
2022-09-07T07:35:07.518Z,13.80
2022-09-07T07:51:31.773Z,14.60
2022-09-07T07:54:54.616Z,14.80
2022-09-07T07:57:59.350Z,14.80
2022-09-07T08:01:04.537Z,14.90
2022-09-07T08:04:08.201Z,15.10
2022-09-07T08:07:13.091Z,15.20
2022-09-07T08:10:16.613Z,15.30
2022-09-07T08:13:21.794Z,15.50
2022-09-07T08:16:25.768Z,15.50
2022-09-07T08:19:29.186Z,15.60
2022-09-07T08:22:34.825Z,15.80
2022-09-07T08:25:38.278Z,15.80
2022-09-07T08:28:46.267Z,15.90
2022-09-07T08:31:49.721Z,15.90
2022-09-07T08:34:53.145Z,16.00
2022-09-07T08:37:56.472Z,16.00
2022-09-07T08:41:00.231Z,16.00
2022-09-07T08:44:11.680Z,16.20
2022-09-07T08:47:23.742Z,16.40
2022-09-07T08:50:33.784Z,16.40
2022-09-07T08:53:41.671Z,16.50
2022-09-07T09:00:16.253Z,16.60
2022-09-07T09:03:30.650Z,16.70
2022-09-07T09:06:43.787Z,16.90
2022-09-07T09:10:22.500Z,16.90
2022-09-07T09:13:37.280Z,16.90
2022-09-07T09:16:45.500Z,17.20
2022-09-07T09:20:00.292Z,17.20
2022-09-07T09:23:12.290Z,17.30
2022-09-07T09:26:21.137Z,17.50
2022-09-07T09:29:24.786Z,17.40
2022-09-07T09:32:41.535Z,17.50
2022-09-07T09:35:46.404Z,17.70
2022-09-07T09:38:49.603Z,17.80
2022-09-07T09:41:53.782Z,17.90
2022-09-07T09:45:04.819Z,17.90
2022-09-07T09:48:20.511Z,18.00
2022-09-07T09:54:53.792Z,18.10
2022-09-07T10:01:26.848Z,18.20
2022-09-07T10:04:35.184Z,18.10
2022-09-07T10:07:38.558Z,18.20
2022-09-07T10:10:55.510Z,18.20
2022-09-07T10:13:59.053Z,18.50
2022-09-07T10:17:11.491Z,18.70
2022-09-07T10:20:34.798Z,18.50
2022-09-07T10:23:38.140Z,18.80
2022-09-07T10:26:44.471Z,18.80
2022-09-07T10:29:47.846Z,19.10
2022-09-07T10:33:00.345Z,19.00
2022-09-07T10:36:11.796Z,18.90
2022-09-07T10:39:19.242Z,19.30
2022-09-07T10:42:29.344Z,19.40
2022-09-07T10:45:43.102Z,19.30
2022-09-07T10:48:57.041Z,19.60
2022-09-07T10:52:11.777Z,19.70
2022-09-07T10:55:22.326Z,19.70
2022-09-07T11:02:04.910Z,20.20
2022-09-07T11:05:19.707Z,19.90
2022-09-07T11:09:15.903Z,20.00
2022-09-07T11:12:04.426Z,20.70
2022-09-07T11:15:19.553Z,20.40
2022-09-07T11:18:27.062Z,21.00
2022-09-07T11:28:45.185Z,21.90
2022-09-07T11:31:52.843Z,23.60
2022-09-07T11:35:00.174Z,24.20
2022-09-07T11:38:13.584Z,23.40
2022-09-07T11:41:30.817Z,25.20
2022-09-07T11:44:42.718Z,24.80
2022-09-07T11:47:51.152Z,24.70
2022-09-07T11:51:01.026Z,23.40
2022-09-07T11:54:19.840Z,23.90
2022-09-07T11:57:40.866Z,24.10
2022-09-07T12:00:53.581Z,26.20
2022-09-07T12:04:24.872Z,26.70
2022-09-07T12:07:54.948Z,27.40
2022-09-07T12:11:08.396Z,27.10
2022-09-07T12:14:34.682Z,24.80
2022-09-07T12:17:49.291Z,27.00
2022-09-07T12:20:52.660Z,24.80
2022-09-07T12:23:56.094Z,26.10
2022-09-07T12:27:00.321Z,25.80
2022-09-07T12:30:50.398Z,25.30
2022-09-07T12:34:33.552Z,25.40
2022-09-07T12:37:40.219Z,26.20
2022-09-07T12:41:00.665Z,25.60
2022-09-07T12:44:11.075Z,26.80
2022-09-07T12:47:30.846Z,25.80
2022-09-07T12:50:40.107Z,27.60
2022-09-07T12:53:57.909Z,26.10
2022-09-07T13:00:53.733Z,26.60
2022-09-07T13:04:46.900Z,26.20
2022-09-07T13:08:16.305Z,25.80
2022-09-07T13:11:32.888Z,26.40
2022-09-07T13:14:39.602Z,25.40
2022-09-07T13:17:44.683Z,26.50
2022-09-07T13:21:18.897Z,26.00
2022-09-07T13:24:52.673Z,26.60
2022-09-07T13:27:58.414Z,24.00
2022-09-07T13:31:49.564Z,23.40
2022-09-07T13:35:04.791Z,23.00
2022-09-07T13:38:13.414Z,21.60
2022-09-07T13:41:22.774Z,21.70
2022-09-07T13:44:29.516Z,21.60
2022-09-07T13:47:42.592Z,21.60
2022-09-07T13:50:54.147Z,21.40
2022-09-07T13:54:04.210Z,21.30
2022-09-07T13:57:13.274Z,21.20
2022-09-07T14:00:18.480Z,21.40
2022-09-07T14:03:25.843Z,20.70
2022-09-07T14:06:35.101Z,20.80
2022-09-07T14:09:38.804Z,20.50
2022-09-07T14:12:52.320Z,21.50
2022-09-07T14:15:56.515Z,21.20
2022-09-07T14:19:00.197Z,20.90
2022-09-07T14:22:12.684Z,22.20
2022-09-07T14:25:18.956Z,23.20
2022-09-07T14:28:38.293Z,24.20
2022-09-07T14:31:41.922Z,24.60
2022-09-07T14:34:46.229Z,23.80
2022-09-07T14:38:00.750Z,24.00
2022-09-07T14:45:16.983Z,23.70
2022-09-07T14:48:31.506Z,23.60
2022-09-07T14:51:37.031Z,24.30
2022-09-07T14:54:41.535Z,24.70
2022-09-07T14:57:44.812Z,25.20
2022-09-07T15:04:32.397Z,25.80
2022-09-07T15:07:39.548Z,26.00
2022-09-07T15:11:32.799Z,24.60
2022-09-07T15:17:42.847Z,24.90
2022-09-07T15:20:47.197Z,25.70
2022-09-07T15:23:53.793Z,25.10
2022-09-07T15:27:01.866Z,25.80
2022-09-07T15:30:06.563Z,25.80
2022-09-07T15:33:11.886Z,24.80
2022-09-07T15:36:20.692Z,24.30
2022-09-07T15:39:30.316Z,24.20
2022-09-07T15:45:59.604Z,23.80
2022-09-07T15:49:04.997Z,24.10
2022-09-07T15:52:34.676Z,23.70
2022-09-07T15:55:38.719Z,22.40
2022-09-07T15:58:43.861Z,22.00
2022-09-07T16:01:52.533Z,21.20
2022-09-07T16:05:01.919Z,20.50
2022-09-07T16:11:45.421Z,18.80
2022-09-07T16:14:56.684Z,18.30
2022-09-07T16:18:01.284Z,17.90
2022-09-07T16:21:11.842Z,17.50
2022-09-07T16:24:34.101Z,17.30
2022-09-07T16:27:38.548Z,16.90
2022-09-07T16:30:59.346Z,16.50
2022-09-07T16:41:37.499Z,15.60
2022-09-07T16:44:44.803Z,15.20
2022-09-07T16:47:54.444Z,14.80
2022-09-07T16:51:01.931Z,14.60
2022-09-07T16:54:07.841Z,14.40
2022-09-07T16:57:15.551Z,14.10
2022-09-07T17:00:19.279Z,13.80
2022-09-07T17:03:22.496Z,13.60
2022-09-07T17:06:27.852Z,13.50
2022-09-07T17:09:32.881Z,13.30
2022-09-07T17:12:37.741Z,13.00
2022-09-07T17:15:40.955Z,12.90
2022-09-07T17:22:09.202Z,12.50
2022-09-07T17:25:14.272Z,12.30
2022-09-07T17:28:17.844Z,12.20
2022-09-07T17:34:49.687Z,11.80
2022-09-07T17:37:53.170Z,11.70
2022-09-07T17:40:58.048Z,11.40
2022-09-07T17:44:01.706Z,11.20
2022-09-07T17:47:05.280Z,11.20
2022-09-07T17:50:09.267Z,11.10
2022-09-07T17:53:12.627Z,11.00
2022-09-07T17:56:18.140Z,10.80
2022-09-07T18:02:46.323Z,10.60
2022-09-07T18:05:55.156Z,10.30
2022-09-07T18:09:00.078Z,10.20
2022-09-07T18:12:06.062Z,10.20
2022-09-07T18:15:14.750Z,10.20
2022-09-07T18:18:20.325Z,10.20
2022-09-07T18:21:26.508Z,10.10
2022-09-07T18:24:32.460Z,10.00
2022-09-07T18:27:39.487Z,9.80
2022-09-07T18:30:43.735Z,9.70
2022-09-07T18:33:47.741Z,9.70
2022-09-07T18:36:52.394Z,9.60
2022-09-07T18:39:56.441Z,9.60
2022-09-07T18:43:04.223Z,9.50
2022-09-07T18:46:10.604Z,9.40
2022-09-07T18:49:14.878Z,9.40
2022-09-07T18:55:42.678Z,9.30
2022-09-07T18:58:48.404Z,9.20
2022-09-07T19:01:57.617Z,9.10
2022-09-07T19:08:32.320Z,9.00
2022-09-07T19:11:37.753Z,8.90
2022-09-07T19:14:52.058Z,8.90
2022-09-07T19:17:58.918Z,8.80
2022-09-07T19:21:07.818Z,8.70
2022-09-07T19:24:15.954Z,8.70
2022-09-07T19:27:20.305Z,8.70
2022-09-07T19:30:26.348Z,8.70
2022-09-07T19:33:29.979Z,8.60
2022-09-07T19:36:36.008Z,8.60
2022-09-07T19:39:39.836Z,8.60
2022-09-07T19:42:45.185Z,8.40
2022-09-07T19:45:53.252Z,8.40
2022-09-07T19:48:58.824Z,8.40
2022-09-07T19:52:03.006Z,8.40
2022-09-07T19:55:07.561Z,8.30
2022-09-07T19:58:12.203Z,8.30
2022-09-07T20:01:25.167Z,8.20
2022-09-07T20:04:30.387Z,8.20
2022-09-07T20:07:33.973Z,8.20
2022-09-07T20:10:40.507Z,8.10
2022-09-07T20:13:45.402Z,8.10
2022-09-07T20:16:56.005Z,8.00
2022-09-07T20:20:01.702Z,8.00
2022-09-07T20:23:07.186Z,8.00
2022-09-07T20:26:15.121Z,8.00
2022-09-07T20:29:34.078Z,7.90
2022-09-07T20:32:40.268Z,7.90
2022-09-07T20:35:45.325Z,7.90
2022-09-07T20:38:50.567Z,8.00
2022-09-07T20:41:54.063Z,8.00
2022-09-07T20:44:57.403Z,7.90
2022-09-07T20:48:02.096Z,7.90
2022-09-07T20:51:09.266Z,7.90
2022-09-07T20:54:12.804Z,7.90
2022-09-07T20:57:16.063Z,7.80
2022-09-07T21:00:19.937Z,7.70
2022-09-07T21:03:25.014Z,7.70
2022-09-07T21:06:29.823Z,7.70
2022-09-07T21:09:33.084Z,7.60
2022-09-07T21:12:37.085Z,7.60
2022-09-07T21:15:40.694Z,7.50
2022-09-07T21:18:45.885Z,7.50
2022-09-07T21:21:49.385Z,7.50
2022-09-07T21:24:52.653Z,7.50
2022-09-07T21:27:55.995Z,7.40
2022-09-07T21:31:00.392Z,7.50
2022-09-07T21:34:05.300Z,7.50
2022-09-07T21:37:08.614Z,7.50
2022-09-07T21:40:12.507Z,7.40
2022-09-07T21:43:17.127Z,7.40
2022-09-07T21:46:20.810Z,7.30
2022-09-07T21:49:25.606Z,7.30
2022-09-07T21:52:28.810Z,7.20
2022-09-07T21:55:31.985Z,7.20
2022-09-07T21:58:35.832Z,7.20
2022-09-07T22:01:39.151Z,7.20
2022-09-07T22:04:43.869Z,7.10
2022-09-07T22:07:47.201Z,7.10
2022-09-07T22:10:50.475Z,7.10
2022-09-07T22:13:55.853Z,7.00
2022-09-07T22:16:59.519Z,7.00
2022-09-07T22:20:04.829Z,7.00
2022-09-07T22:23:08.193Z,6.90
2022-09-07T22:26:11.662Z,6.90
2022-09-07T22:29:14.913Z,6.90
2022-09-07T22:32:18.222Z,6.80
2022-09-07T22:35:24.883Z,6.80
2022-09-07T22:38:29.126Z,6.80
2022-09-07T22:41:34.402Z,6.80
2022-09-07T22:44:38.923Z,6.70
2022-09-07T22:47:43.288Z,6.70
2022-09-07T22:50:55.705Z,6.80
2022-09-07T22:53:59.526Z,6.70
2022-09-07T22:57:02.820Z,6.70
2022-09-07T23:00:07.460Z,6.70
2022-09-07T23:03:10.829Z,6.70
2022-09-07T23:06:30.905Z,6.70
2022-09-07T23:09:34.193Z,6.70
2022-09-07T23:12:37.498Z,6.70
2022-09-07T23:15:40.810Z,6.70
2022-09-07T23:18:44.087Z,6.70
2022-09-07T23:21:48.925Z,6.70
2022-09-07T23:24:52.256Z,6.70
2022-09-07T23:27:55.475Z,6.70
2022-09-07T23:30:59.144Z,6.60
2022-09-07T23:34:03.015Z,6.60
2022-09-07T23:37:07.603Z,6.60
2022-09-07T23:40:11.634Z,6.50
2022-09-07T23:43:14.904Z,6.50
2022-09-07T23:46:18.241Z,6.50
2022-09-07T23:49:21.487Z,6.50
2022-09-07T23:52:26.064Z,6.50
2022-09-07T23:55:29.796Z,6.50
2022-09-07T23:58:32.962Z,6.50
